createdAt,value
2018-08-13T00:01:33.186Z,99638.00
2018-08-13T00:04:12.439Z,99635.00
2018-08-13T00:06:49.028Z,99633.00
2018-08-13T00:09:30.804Z,99634.00
2018-08-13T00:12:07.804Z,99637.00
2018-08-13T00:14:45.814Z,99639.00
2018-08-13T00:17:23.678Z,99635.00
2018-08-13T00:20:02.202Z,99633.00
2018-08-13T00:22:38.638Z,99632.00
2018-08-13T00:25:15.277Z,99630.00
2018-08-13T00:27:51.260Z,99623.00
2018-08-13T00:30:29.280Z,99619.00
2018-08-13T00:33:06.146Z,99616.00
2018-08-13T00:35:42.273Z,99616.00
2018-08-13T00:38:18.845Z,99615.00
2018-08-13T00:40:55.310Z,99619.00
2018-08-13T00:43:31.637Z,99616.00
2018-08-13T00:46:09.404Z,99609.00
2018-08-13T00:48:46.205Z,99606.00
2018-08-13T00:51:22.293Z,99613.00
2018-08-13T00:54:00.280Z,99612.00
2018-08-13T00:56:37.878Z,99606.00
2018-08-13T00:59:14.957Z,99604.00
2018-08-13T01:01:50.635Z,99608.00
2018-08-13T01:04:27.894Z,99603.00
2018-08-13T01:07:05.580Z,99600.00
2018-08-13T01:09:42.777Z,99605.00
2018-08-13T01:12:19.619Z,99594.00
2018-08-13T01:14:56.316Z,99591.00
2018-08-13T01:17:34.466Z,99585.00
2018-08-13T01:20:12.898Z,99589.00
2018-08-13T01:22:50.358Z,99586.00
2018-08-13T01:25:27.912Z,99583.00
2018-08-13T01:28:05.317Z,99583.00
2018-08-13T01:30:42.099Z,99577.00
2018-08-13T01:33:19.251Z,99570.00
2018-08-13T01:35:55.031Z,99569.00
2018-08-13T01:38:32.516Z,99563.00
2018-08-13T01:41:09.697Z,99565.00
2018-08-13T01:43:48.950Z,99560.00
2018-08-13T01:46:25.717Z,99565.00
2018-08-13T01:49:02.984Z,99559.00
2018-08-13T01:51:39.391Z,99560.00
2018-08-13T01:54:16.414Z,99555.00
2018-08-13T01:56:59.406Z,99555.00
2018-08-13T01:59:36.109Z,99566.00
2018-08-13T02:02:14.418Z,99564.00
2018-08-13T02:04:52.142Z,99564.00
2018-08-13T02:07:29.889Z,99560.00
2018-08-13T02:10:10.137Z,99557.00
2018-08-13T02:12:46.866Z,99555.00
2018-08-13T02:15:22.732Z,99559.00
2018-08-13T02:18:00.365Z,99561.00
2018-08-13T02:20:36.909Z,99562.00
2018-08-13T02:23:14.389Z,99556.00
2018-08-13T02:25:51.094Z,99548.00
2018-08-13T02:28:27.453Z,99548.00
2018-08-13T02:31:04.059Z,99546.00
2018-08-13T02:33:40.228Z,99545.00
2018-08-13T02:36:18.107Z,99544.00
2018-08-13T02:38:55.666Z,99547.00
2018-08-13T02:41:31.451Z,99543.00
2018-08-13T02:44:08.011Z,99544.00
2018-08-13T02:46:45.139Z,99543.00
2018-08-13T02:49:21.210Z,99542.00
2018-08-13T02:51:57.646Z,99544.00
2018-08-13T02:54:35.905Z,99546.00
2018-08-13T02:57:14.449Z,99541.00
2018-08-13T02:59:52.586Z,99539.00
2018-08-13T03:02:28.279Z,99541.00
2018-08-13T03:05:09.399Z,99536.00
2018-08-13T03:07:45.931Z,99537.00
2018-08-13T03:10:22.694Z,99534.00
2018-08-13T03:12:59.565Z,99530.00
2018-08-13T03:15:35.739Z,99531.00
2018-08-13T03:18:13.830Z,99528.00
2018-08-13T03:20:50.417Z,99524.00
2018-08-13T03:23:26.767Z,99525.00
2018-08-13T03:26:05.174Z,99522.00
2018-08-13T03:28:42.888Z,99521.00
2018-08-13T03:31:19.316Z,99520.00
2018-08-13T03:33:56.502Z,99518.00
2018-08-13T03:36:35.142Z,99509.00
2018-08-13T03:39:14.193Z,99516.00
2018-08-13T03:41:50.644Z,99513.00
2018-08-13T03:44:27.456Z,99514.00
2018-08-13T03:47:04.024Z,99511.00
2018-08-13T03:49:42.001Z,99513.00
2018-08-13T03:52:18.602Z,99509.00
2018-08-13T03:54:56.378Z,99506.00
2018-08-13T03:57:32.831Z,99504.00
2018-08-13T04:00:15.820Z,99500.00
2018-08-13T04:02:52.451Z,99500.00
2018-08-13T04:05:29.605Z,99498.00
2018-08-13T04:08:06.111Z,99501.00
2018-08-13T04:10:43.058Z,99499.00
2018-08-13T04:13:20.360Z,99493.00
2018-08-13T04:15:56.398Z,99499.00
2018-08-13T04:18:32.227Z,99500.00
2018-08-13T04:21:08.869Z,99501.00
2018-08-13T04:23:45.646Z,99495.00
2018-08-13T04:26:23.024Z,99491.00
2018-08-13T04:29:00.824Z,99492.00
2018-08-13T04:31:37.084Z,99491.00
2018-08-13T04:34:13.078Z,99488.00
2018-08-13T04:36:49.893Z,99485.00
2018-08-13T04:39:26.659Z,99490.00
2018-08-13T04:42:02.687Z,99485.00
2018-08-13T04:44:40.147Z,99492.00
2018-08-13T04:47:17.942Z,99488.00
2018-08-13T04:49:55.337Z,99487.00
2018-08-13T04:52:33.430Z,99486.00
2018-08-13T04:55:11.577Z,99485.00
2018-08-13T04:57:49.490Z,99488.00
2018-08-13T05:00:26.868Z,99485.00
2018-08-13T05:03:04.652Z,99489.00
2018-08-13T05:05:42.867Z,99485.00
2018-08-13T05:08:21.165Z,99479.00
2018-08-13T05:10:59.569Z,99481.00
2018-08-13T05:13:36.518Z,99485.00
2018-08-13T05:16:14.226Z,99488.00
2018-08-13T05:18:50.772Z,99486.00
2018-08-13T05:21:29.267Z,99492.00
2018-08-13T05:24:06.654Z,99494.00
2018-08-13T05:26:43.460Z,99492.00
2018-08-13T05:29:21.825Z,99495.00
2018-08-13T05:31:58.723Z,99497.00
2018-08-13T05:34:35.636Z,99494.00
2018-08-13T05:37:11.485Z,99493.00
2018-08-13T05:39:48.170Z,99495.00
2018-08-13T05:42:24.605Z,99491.00
2018-08-13T05:45:02.207Z,99497.00
2018-08-13T05:47:39.882Z,99494.00
2018-08-13T05:50:16.012Z,99493.00
2018-08-13T05:52:53.115Z,99489.00
2018-08-13T05:55:30.258Z,99490.00
2018-08-13T05:58:07.571Z,99484.00
2018-08-13T06:00:45.504Z,99483.00
2018-08-13T06:03:23.016Z,99480.00
2018-08-13T06:06:00.263Z,99480.00
2018-08-13T06:08:37.627Z,99481.00
2018-08-13T06:11:15.853Z,99472.00
2018-08-13T06:13:52.306Z,99472.00
2018-08-13T06:16:30.005Z,99473.00
2018-08-13T06:19:07.812Z,99465.00
2018-08-13T06:21:44.084Z,99458.00
2018-08-13T06:24:20.940Z,99444.00
2018-08-13T06:26:59.304Z,99441.00
2018-08-13T06:29:36.862Z,99431.00
2018-08-13T06:32:13.315Z,99430.00
2018-08-13T06:34:50.306Z,99434.00
2018-08-13T06:37:26.922Z,99433.00
2018-08-13T06:40:05.382Z,99431.00
2018-08-13T06:42:43.384Z,99435.00
2018-08-13T06:45:21.261Z,99429.00
2018-08-13T06:47:58.210Z,99434.00
2018-08-13T06:50:35.998Z,99432.00
2018-08-13T06:53:13.339Z,99427.00
2018-08-13T06:55:52.034Z,99424.00
2018-08-13T06:58:28.849Z,99430.00
2018-08-13T07:01:05.804Z,99426.00
2018-08-13T07:03:42.857Z,99431.00
2018-08-13T07:06:20.418Z,99430.00
2018-08-13T07:08:56.750Z,99426.00
2018-08-13T07:11:33.994Z,99427.00
2018-08-13T07:14:11.716Z,99423.00
2018-08-13T07:16:47.868Z,99420.00
2018-08-13T07:19:23.669Z,99422.00
2018-08-13T07:22:00.807Z,99423.00
2018-08-13T07:24:38.428Z,99414.00
2018-08-13T07:27:16.639Z,99413.00
2018-08-13T07:29:56.236Z,99415.00
2018-08-13T07:32:34.930Z,99411.00
2018-08-13T07:35:11.600Z,99409.00
2018-08-13T07:37:49.404Z,99407.00
2018-08-13T07:40:26.690Z,99409.00
2018-08-13T07:43:03.565Z,99410.00
2018-08-13T07:45:40.801Z,99404.00
2018-08-13T07:48:20.017Z,99398.00
2018-08-13T07:50:56.881Z,99396.00
2018-08-13T07:53:34.154Z,99399.00
2018-08-13T07:56:12.629Z,99402.00
2018-08-13T07:58:50.434Z,99401.00
2018-08-13T08:01:28.779Z,99400.00
2018-08-13T08:04:06.311Z,99394.00
2018-08-13T08:06:43.828Z,99387.00
2018-08-13T08:09:22.340Z,99394.00
2018-08-13T08:11:59.765Z,99391.00
2018-08-13T08:14:38.847Z,99395.00
2018-08-13T08:17:18.268Z,99386.00
2018-08-13T08:19:55.598Z,99391.00
2018-08-13T08:22:31.889Z,99388.00
2018-08-13T08:25:12.213Z,99380.00
2018-08-13T08:27:49.481Z,99380.00
2018-08-13T08:30:25.149Z,99380.00
2018-08-13T08:33:03.031Z,99375.00
2018-08-13T08:35:40.534Z,99370.00
2018-08-13T08:38:17.282Z,99370.00
2018-08-13T08:40:54.435Z,99375.00
2018-08-13T08:43:31.738Z,99373.00
2018-08-13T08:46:08.914Z,99372.00
2018-08-13T08:48:46.112Z,99365.00
2018-08-13T08:51:23.321Z,99366.00
2018-08-13T08:54:01.808Z,99356.00
2018-08-13T08:56:40.558Z,99353.00
2018-08-13T08:59:17.257Z,99357.00
2018-08-13T09:01:54.110Z,99350.00
2018-08-13T09:04:31.816Z,99350.00
2018-08-13T09:07:10.204Z,99344.00
2018-08-13T09:09:49.121Z,99336.00
2018-08-13T09:12:27.111Z,99342.00
2018-08-13T09:15:03.545Z,99340.00
2018-08-13T09:17:59.383Z,99341.00
2018-08-13T09:20:52.356Z,99346.00
2018-08-13T09:23:47.165Z,99345.00
2018-08-13T09:26:41.814Z,99345.00
2018-08-13T09:29:37.092Z,99330.00
2018-08-13T09:32:33.552Z,99339.00
2018-08-13T09:35:19.441Z,99333.00
2018-08-13T09:37:58.054Z,99334.00
2018-08-13T09:40:34.817Z,99327.00
2018-08-13T09:43:12.332Z,99327.00
2018-08-13T09:45:53.266Z,99322.00
2018-08-13T09:48:30.483Z,99319.00
2018-08-13T09:51:07.248Z,99314.00
2018-08-13T09:53:45.980Z,99315.00
2018-08-13T09:56:23.613Z,99323.00
2018-08-13T09:59:01.457Z,99317.00
2018-08-13T10:01:38.975Z,99320.00
2018-08-13T10:04:17.093Z,99310.00
2018-08-13T10:06:54.563Z,99313.00
2018-08-13T10:09:33.398Z,99309.00
2018-08-13T10:12:11.979Z,99305.00
2018-08-13T10:14:49.014Z,99303.00
2018-08-13T10:17:25.865Z,99295.00
2018-08-13T10:20:04.525Z,99287.00
2018-08-13T10:22:43.590Z,99288.00
2018-08-13T10:25:19.486Z,99287.00
2018-08-13T10:27:57.113Z,99282.00
2018-08-13T10:30:33.890Z,99279.00
2018-08-13T10:33:11.735Z,99278.00
2018-08-13T10:35:49.332Z,99276.00
2018-08-13T10:38:26.646Z,99269.00
2018-08-13T10:41:04.646Z,99268.00
2018-08-13T10:43:43.570Z,99265.00
2018-08-13T10:46:21.861Z,99261.00
2018-08-13T10:48:59.669Z,99259.00
2018-08-13T10:51:36.049Z,99257.00
2018-08-13T10:54:12.733Z,99260.00
2018-08-13T10:56:50.068Z,99249.00
2018-08-13T10:59:27.153Z,99245.00
2018-08-13T11:02:03.555Z,99245.00
2018-08-13T11:04:41.013Z,99247.00
2018-08-13T11:07:17.812Z,99248.00
2018-08-13T11:09:57.364Z,99244.00
2018-08-13T11:12:35.885Z,99239.00
2018-08-13T11:15:17.008Z,99237.00
2018-08-13T11:17:54.637Z,99239.00
2018-08-13T11:20:32.765Z,99232.00
2018-08-13T11:23:10.666Z,99202.00
2018-08-13T11:25:48.521Z,99220.00
2018-08-13T11:28:26.643Z,99197.00
2018-08-13T11:31:03.975Z,99195.00
2018-08-13T11:33:42.741Z,99201.00
2018-08-13T11:36:20.293Z,99193.00
2018-08-13T11:38:59.537Z,99206.00
2018-08-13T11:41:37.190Z,99180.00
2018-08-13T11:44:16.046Z,99174.00
2018-08-13T11:46:52.661Z,99178.00
2018-08-13T11:49:29.913Z,99171.00
2018-08-13T11:52:07.187Z,99172.00
2018-08-13T11:54:44.581Z,99195.00
2018-08-13T11:57:21.560Z,99172.00
2018-08-13T11:59:58.479Z,99165.00
2018-08-13T12:02:36.151Z,99162.00
2018-08-13T12:05:13.881Z,99165.00
2018-08-13T12:07:51.978Z,99168.00
2018-08-13T12:10:29.514Z,99166.00
2018-08-13T12:13:07.617Z,99169.00
2018-08-13T12:15:44.348Z,99165.00
2018-08-13T12:18:22.207Z,99168.00
2018-08-13T12:21:00.250Z,99169.00
2018-08-13T12:23:37.692Z,99160.00
2018-08-13T12:26:16.313Z,99164.00
2018-08-13T12:28:54.168Z,99161.00
2018-08-13T12:31:31.369Z,99165.00
2018-08-13T12:34:08.782Z,99163.00
2018-08-13T12:36:46.328Z,99168.00
2018-08-13T12:39:24.657Z,99177.00
2018-08-13T12:42:01.243Z,99176.00
2018-08-13T12:44:39.604Z,99156.00
2018-08-13T12:47:17.042Z,99152.00
2018-08-13T12:49:55.180Z,99146.00
2018-08-13T12:52:32.383Z,99148.00
2018-08-13T12:55:10.853Z,99151.00
2018-08-13T12:57:47.668Z,99154.00
2018-08-13T13:00:25.806Z,99161.00
2018-08-13T13:03:04.218Z,99158.00
2018-08-13T13:05:41.484Z,99164.00
2018-08-13T13:08:18.308Z,99159.00
2018-08-13T13:10:54.683Z,99149.00
2018-08-13T13:13:32.254Z,99146.00
2018-08-13T13:16:10.351Z,99146.00
2018-08-13T13:18:47.543Z,99138.00
2018-08-13T13:21:24.850Z,99152.00
2018-08-13T13:24:02.939Z,99129.00
2018-08-13T13:26:40.649Z,99127.00
2018-08-13T13:29:18.469Z,99136.00
2018-08-13T13:31:54.917Z,99128.00
2018-08-13T13:34:32.576Z,99120.00
2018-08-13T13:37:10.426Z,99114.00
2018-08-13T13:39:48.569Z,99115.00
2018-08-13T13:42:25.502Z,99119.00
2018-08-13T13:45:02.531Z,99115.00
2018-08-13T13:47:40.214Z,99112.00
2018-08-13T13:50:19.083Z,99117.00
2018-08-13T13:52:56.084Z,99112.00
2018-08-13T13:55:33.961Z,99111.00
2018-08-13T13:58:12.467Z,99102.00
2018-08-13T14:00:50.017Z,99103.00
2018-08-13T14:03:27.607Z,99101.00
2018-08-13T14:06:05.332Z,99111.00
2018-08-13T14:08:42.830Z,99118.00
2018-08-13T14:11:20.559Z,99125.00
2018-08-13T14:13:58.242Z,99128.00
2018-08-13T14:16:36.282Z,99135.00
2018-08-13T14:19:14.187Z,99137.00
2018-08-13T14:21:51.386Z,99150.00
2018-08-13T14:24:27.440Z,99138.00
2018-08-13T14:27:04.933Z,99149.00
2018-08-13T14:29:41.830Z,99155.00
2018-08-13T14:32:19.321Z,99155.00
2018-08-13T14:34:56.671Z,99152.00
2018-08-13T14:37:35.261Z,99157.00
2018-08-13T14:40:13.757Z,99164.00
2018-08-13T14:42:51.468Z,99168.00
2018-08-13T14:45:28.082Z,99185.00
2018-08-13T14:48:06.067Z,99195.00
2018-08-13T14:50:43.877Z,99201.00
2018-08-13T14:53:20.216Z,99211.00
2018-08-13T14:55:56.709Z,99219.00
2018-08-13T14:58:33.327Z,99226.00
2018-08-13T15:01:10.053Z,99236.00
2018-08-13T15:03:47.717Z,99234.00
2018-08-13T15:06:24.840Z,99235.00
2018-08-13T15:09:04.008Z,99251.00
2018-08-13T15:11:42.349Z,99251.00
2018-08-13T15:14:19.501Z,99261.00
2018-08-13T15:16:56.671Z,99265.00
2018-08-13T15:19:33.521Z,99273.00
2018-08-13T15:22:10.695Z,99275.00
2018-08-13T15:24:48.242Z,99282.00
2018-08-13T15:27:26.631Z,99283.00
2018-08-13T15:30:05.014Z,99279.00
2018-08-13T15:32:44.649Z,99281.00
2018-08-13T15:35:21.957Z,99294.00
2018-08-13T15:37:58.194Z,99296.00
2018-08-13T15:40:34.839Z,99311.00
2018-08-13T15:43:12.498Z,99314.00
2018-08-13T15:45:49.773Z,99327.00
2018-08-13T15:48:27.747Z,99324.00
2018-08-13T15:51:05.557Z,99329.00
2018-08-13T15:53:43.180Z,99329.00
2018-08-13T15:56:20.410Z,99343.00
2018-08-13T15:58:56.777Z,99346.00
2018-08-13T16:01:33.051Z,99348.00
2018-08-13T16:04:10.704Z,99352.00
2018-08-13T16:06:47.625Z,99341.00
2018-08-13T16:09:23.726Z,99334.00
2018-08-13T16:12:00.792Z,99328.00
2018-08-13T16:14:37.925Z,99321.00
2018-08-13T16:17:14.746Z,99326.00
2018-08-13T16:19:50.721Z,99315.00
2018-08-13T16:22:27.169Z,99308.00
2018-08-13T16:25:03.117Z,99300.00
2018-08-13T16:27:42.778Z,99290.00
2018-08-13T16:30:24.000Z,99292.00
2018-08-13T16:33:02.296Z,99293.00
2018-08-13T16:35:40.349Z,99292.00
2018-08-13T16:38:18.620Z,99297.00
2018-08-13T16:40:58.723Z,99296.00
2018-08-13T16:43:37.951Z,99292.00
2018-08-13T16:46:14.691Z,99294.00
2018-08-13T16:48:50.860Z,99291.00
2018-08-13T16:51:27.388Z,99295.00
2018-08-13T16:54:04.155Z,99287.00
2018-08-13T16:56:41.881Z,99293.00
2018-08-13T16:59:18.447Z,99294.00
2018-08-13T17:01:55.802Z,99296.00
2018-08-13T17:04:32.687Z,99293.00
2018-08-13T17:07:10.205Z,99288.00
2018-08-13T17:09:46.478Z,99286.00
2018-08-13T17:12:24.687Z,99287.00
2018-08-13T17:15:03.690Z,99297.00
2018-08-13T17:17:40.975Z,99306.00
2018-08-13T17:20:21.250Z,99305.00
2018-08-13T17:22:58.131Z,99311.00
2018-08-13T17:25:35.259Z,99310.00
2018-08-13T17:28:12.867Z,99310.00
2018-08-13T17:30:49.790Z,99303.00
2018-08-13T17:33:26.817Z,99302.00
2018-08-13T17:36:04.479Z,99306.00
2018-08-13T17:38:40.609Z,99301.00
2018-08-13T17:41:17.693Z,99297.00
2018-08-13T17:43:54.853Z,99285.00
2018-08-13T17:46:31.934Z,99282.00
2018-08-13T17:49:10.579Z,99266.00
2018-08-13T17:51:48.213Z,99257.00
2018-08-13T17:54:24.512Z,99265.00
2018-08-13T17:57:02.311Z,99275.00
2018-08-13T17:59:38.656Z,99288.00
2018-08-13T18:02:16.195Z,99297.00
2018-08-13T18:04:55.122Z,99295.00
2018-08-13T18:07:31.933Z,99298.00
2018-08-13T18:10:16.413Z,99309.00
2018-08-13T18:12:52.054Z,99317.00
2018-08-13T18:15:30.448Z,99323.00
2018-08-13T18:18:07.571Z,99321.00
2018-08-13T18:20:45.804Z,99319.00
2018-08-13T18:23:22.661Z,99328.00
2018-08-13T18:25:59.890Z,99337.00
2018-08-13T18:28:36.233Z,99335.00
2018-08-13T18:31:12.173Z,99340.00
2018-08-13T18:33:48.942Z,99351.00
2018-08-13T18:36:25.330Z,99354.00
2018-08-13T18:39:02.267Z,99360.00
2018-08-13T18:41:39.226Z,99366.00
2018-08-13T18:44:15.813Z,99374.00
2018-08-13T18:46:51.581Z,99377.00
2018-08-13T18:49:28.082Z,99385.00
2018-08-13T18:52:04.445Z,99388.00
2018-08-13T18:54:41.605Z,99391.00
2018-08-13T18:57:18.737Z,99399.00
2018-08-13T18:59:55.572Z,99408.00
2018-08-13T19:02:32.617Z,99414.00
2018-08-13T19:05:10.355Z,99417.00
2018-08-13T19:07:47.878Z,99418.00
2018-08-13T19:10:25.781Z,99412.00
2018-08-13T19:13:03.726Z,99406.00
2018-08-13T19:15:40.481Z,99413.00
2018-08-13T19:18:16.693Z,99415.00
2018-08-13T19:20:53.906Z,99411.00
2018-08-13T19:23:30.778Z,99419.00
2018-08-13T19:26:08.507Z,99410.00
2018-08-13T19:28:47.250Z,99411.00
2018-08-13T19:31:23.951Z,99405.00
2018-08-13T19:34:01.179Z,99403.00
2018-08-13T19:36:36.899Z,99422.00
2018-08-13T19:39:15.061Z,99427.00
2018-08-13T19:41:51.158Z,99427.00
2018-08-13T19:44:28.521Z,99430.00
2018-08-13T19:47:05.527Z,99428.00
2018-08-13T19:49:42.302Z,99409.00
2018-08-13T19:52:18.873Z,99411.00
2018-08-13T19:54:55.488Z,99415.00
2018-08-13T19:57:31.430Z,99403.00
2018-08-13T20:00:15.449Z,99397.00
2018-08-13T20:02:52.367Z,99403.00
2018-08-13T20:05:30.165Z,99403.00
2018-08-13T20:08:08.069Z,99407.00
2018-08-13T20:10:44.896Z,99409.00
2018-08-13T20:13:21.960Z,99424.00
2018-08-13T20:15:59.596Z,99418.00
2018-08-13T20:18:36.187Z,99410.00
2018-08-13T20:21:13.685Z,99420.00
2018-08-13T20:23:50.875Z,99424.00
2018-08-13T20:26:27.769Z,99430.00
2018-08-13T20:29:05.780Z,99434.00
2018-08-13T20:31:42.447Z,99439.00
2018-08-13T20:34:19.839Z,99437.00
2018-08-13T20:36:57.953Z,99424.00
2018-08-13T20:39:34.736Z,99425.00
2018-08-13T20:42:13.211Z,99417.00
2018-08-13T20:44:49.758Z,99420.00
2018-08-13T20:47:27.336Z,99413.00
2018-08-13T20:50:05.438Z,99417.00
2018-08-13T20:52:42.620Z,99419.00
2018-08-13T20:55:24.243Z,99421.00
2018-08-13T20:58:02.322Z,99431.00
2018-08-13T21:00:38.889Z,99427.00
2018-08-13T21:03:15.629Z,99425.00
2018-08-13T21:05:51.956Z,99432.00
2018-08-13T21:08:30.996Z,99432.00
2018-08-13T21:11:08.925Z,99433.00
2018-08-13T21:13:45.861Z,99436.00
2018-08-13T21:16:23.436Z,99441.00
2018-08-13T21:19:01.007Z,99441.00
2018-08-13T21:21:37.535Z,99434.00
2018-08-13T21:24:13.858Z,99434.00
2018-08-13T21:26:49.581Z,99434.00
2018-08-13T21:29:28.045Z,99435.00
2018-08-13T21:32:03.877Z,99429.00
2018-08-13T21:34:41.409Z,99429.00
2018-08-13T21:37:18.466Z,99426.00
2018-08-13T21:39:55.266Z,99424.00
2018-08-13T21:42:39.165Z,99423.00
2018-08-13T21:45:17.406Z,99424.00
2018-08-13T21:47:54.775Z,99429.00
2018-08-13T21:50:32.936Z,99426.00
2018-08-13T21:53:09.628Z,99419.00
2018-08-13T21:55:45.470Z,99419.00
2018-08-13T21:58:21.793Z,99422.00
2018-08-13T22:01:03.470Z,99428.00
2018-08-13T22:03:41.626Z,99426.00
2018-08-13T22:06:17.970Z,99433.00
2018-08-13T22:08:55.362Z,99433.00
2018-08-13T22:11:32.386Z,99439.00
2018-08-13T22:14:10.511Z,99443.00
2018-08-13T22:16:48.149Z,99450.00
2018-08-13T22:19:25.023Z,99447.00
2018-08-13T22:22:00.903Z,99450.00
2018-08-13T22:24:55.719Z,99452.00
2018-08-13T22:27:32.921Z,99453.00
2018-08-13T22:30:11.109Z,99450.00
2018-08-13T22:32:49.539Z,99448.00
2018-08-13T22:35:25.828Z,99446.00
2018-08-13T22:38:01.496Z,99438.00
2018-08-13T22:40:40.341Z,99441.00
2018-08-13T22:43:18.535Z,99436.00
2018-08-13T22:45:55.979Z,99439.00
2018-08-13T22:48:33.557Z,99435.00
2018-08-13T22:51:10.676Z,99438.00
2018-08-13T22:53:47.412Z,99439.00
2018-08-13T22:56:23.235Z,99442.00
2018-08-13T22:59:00.454Z,99439.00
2018-08-13T23:01:37.525Z,99447.00
2018-08-13T23:04:15.308Z,99450.00
2018-08-13T23:06:51.774Z,99452.00
2018-08-13T23:09:28.201Z,99453.00
2018-08-13T23:12:08.600Z,99459.00
2018-08-13T23:14:49.207Z,99455.00
2018-08-13T23:17:24.981Z,99467.00
2018-08-13T23:20:02.113Z,99465.00
2018-08-13T23:23:03.936Z,99460.00
2018-08-13T23:25:40.870Z,99464.00
2018-08-13T23:28:18.128Z,99466.00
2018-08-13T23:30:54.111Z,99466.00
2018-08-13T23:33:31.677Z,99462.00
2018-08-13T23:36:08.496Z,99461.00
2018-08-13T23:38:44.429Z,99463.00
2018-08-13T23:41:20.474Z,99467.00
2018-08-13T23:43:56.695Z,99464.00
2018-08-13T23:46:33.194Z,99463.00
2018-08-13T23:49:09.498Z,99460.00
2018-08-13T23:51:46.545Z,99459.00
2018-08-13T23:54:24.865Z,99453.00
2018-08-13T23:57:02.619Z,99454.00
2018-08-13T23:59:39.336Z,99453.00
